Time;durP1;ratioP1;P1;durP2;ratioP2;P2;SDS_P1;SDS_P2;PMS_P1;PMS_P2;Temp;Humidity;BMP_temperature;BMP_pressure;BME280_temperature;BME280_humidity;BME280_pressure;Samples;Min_cycle;Max_cycle;Signal;HPM_P1;HPM_P2
2022/11/26 00:02:40;;;;;;;40.63;13.73;;;;;;;;;;5016349;28;20033;-77
2022/11/26 00:05:06;;;;;;;49.57;12.33;;;;;;;;;;4999911;28;20229;-77
2022/11/26 00:07:33;;;;;;;55.17;15.87;;;;;;;;;;5013905;28;20443;-78
2022/11/26 00:09:59;;;;;;;44.37;14.03;;;;;;;;;;5015603;28;20113;-78
2022/11/26 00:12:27;;;;;;;38.73;13.37;;;;;;;;;;5016846;28;20076;-77
2022/11/26 00:14:53;;;;;;;47.03;15.47;;;;;;;;;;5016892;28;20117;-77
2022/11/26 00:17:19;;;;;;;47.77;15.17;;;;;;;;;;5015080;28;20041;-78
2022/11/26 00:19:46;;;;;;;50.43;16.33;;;;;;;;;;5048759;28;20030;-78
2022/11/26 00:22:31;;;;;;;38.73;16.30;;;;;;;;;;5016059;28;20095;-78
2022/11/26 00:24:57;;;;;;;47.57;14.77;;;;;;;;;;5011350;28;20026;-78
2022/11/26 00:27:27;;;;;;;44.10;15.13;;;;;;;;;;5032139;28;20026;-78
2022/11/26 00:29:53;;;;;;;53.30;16.50;;;;;;;;;;5015364;28;20025;-77
2022/11/26 00:32:21;;;;;;;59.40;17.27;;;;;;;;;;5015106;28;20029;-78
2022/11/26 00:34:47;;;;;;;60.00;16.40;;;;;;;;;;5015495;28;20018;-78
2022/11/26 00:37:24;;;;;;;51.53;16.93;;;;;;;;;;5031939;28;20046;-78
2022/11/26 00:39:50;;;;;;;44.90;16.10;;;;;;;;;;5015022;28;20687;-78
2022/11/26 00:42:17;;;;;;;58.70;15.77;;;;;;;;;;5017432;28;20037;-78
2022/11/26 00:44:43;;;;;;;58.13;16.87;;;;;;;;;;5029793;28;20030;-78
2022/11/26 00:47:12;;;;;;;47.60;15.57;;;;;;;;;;5018632;28;20025;-78
2022/11/26 00:49:38;;;;;;;55.87;16.17;;;;;;;;;;5015770;28;20017;-78
2022/11/26 00:52:06;;;;;;;49.57;16.87;;;;;;;;;;5015281;28;20069;-78
2022/11/26 00:54:32;;;;;;;64.97;16.37;;;;;;;;;;5016327;28;20042;-77
2022/11/26 00:56:58;;;;;;;57.57;18.37;;;;;;;;;;5015856;28;20052;-79
2022/11/26 00:59:24;;;;;;;59.33;17.57;;;;;;;;;;5015865;28;20018;-78
2022/11/26 01:01:50;;;;;;;54.17;15.90;;;;;;;;;;5030530;28;20470;-78
2022/11/26 01:04:16;;;;;;;61.07;18.17;;;;;;;;;;5014619;28;20362;-78
2022/11/26 01:06:43;;;;;;;66.20;19.77;;;;;;;;;;5043562;28;20022;-78
2022/11/26 01:09:16;;;;;;;52.47;17.37;;;;;;;;;;5030647;28;20460;-77
2022/11/26 01:11:42;;;;;;;56.40;17.52;;;;;;;;;;5023032;28;20017;-77
2022/11/26 01:14:13;;;;;;;65.23;19.37;;;;;;;;;;5014649;28;20030;-78
2022/11/26 01:16:42;;;;;;;57.67;17.93;;;;;;;;;;5032879;28;20055;-78
2022/11/26 01:19:13;;;;;;;55.37;18.13;;;;;;;;;;5015530;28;20033;-77
2022/11/26 01:21:39;;;;;;;57.87;17.97;;;;;;;;;;5009380;28;20474;-77
2022/11/26 01:24:08;;;;;;;62.77;18.37;;;;;;;;;;5033581;28;20034;-77
2022/11/26 01:26:39;;;;;;;70.57;20.97;;;;;;;;;;5016937;28;20045;-77
2022/11/26 01:29:05;;;;;;;65.20;20.33;;;;;;;;;;5009786;28;20105;-77
2022/11/26 01:31:31;;;;;;;64.13;19.70;;;;;;;;;;5030725;28;20022;-77
2022/11/26 01:33:57;;;;;;;63.03;19.77;;;;;;;;;;5019798;28;20029;-77
2022/11/26 01:36:29;;;;;;;62.57;18.33;;;;;;;;;;5010642;28;20438;-77
2022/11/26 01:38:56;;;;;;;70.13;20.30;;;;;;;;;;5048184;28;20079;-77
2022/11/26 01:41:41;;;;;;;60.10;18.00;;;;;;;;;;5014534;28;20044;-77
2022/11/26 01:44:15;;;;;;;53.70;17.33;;;;;;;;;;5014686;28;20057;-77
2022/11/26 01:46:41;;;;;;;54.10;16.83;;;;;;;;;;5013132;28;20029;-77
2022/11/26 01:49:15;;;;;;;59.03;17.77;;;;;;;;;;5016829;28;20022;-77
2022/11/26 01:51:41;;;;;;;56.80;16.30;;;;;;;;;;5028447;28;20052;-77
2022/11/26 01:54:10;;;;;;;52.37;18.30;;;;;;;;;;5014999;28;20025;-77
2022/11/26 01:56:40;;;;;;;63.57;19.60;;;;;;;;;;5016178;28;20021;-77
2022/11/26 01:59:07;;;;;;;67.77;18.90;;;;;;;;;;5018290;28;20096;-78
2022/11/26 02:01:34;;;;;;;66.47;20.60;;;;;;;;;;5015238;28;20042;-78
2022/11/26 02:04:00;;;;;;;66.77;18.63;;;;;;;;;;5016323;28;20034;-78
2022/11/26 02:06:30;;;;;;;53.60;17.17;;;;;;;;;;5031049;28;20138;-78
2022/11/26 02:08:59;;;;;;;42.37;16.47;;;;;;;;;;5033601;28;20435;-77
2022/11/26 02:11:26;;;;;;;42.60;15.90;;;;;;;;;;5029944;28;20022;-78
2022/11/26 02:13:54;;;;;;;51.43;19.03;;;;;;;;;;5016573;28;20048;-77
2022/11/26 02:16:35;;;;;;;54.60;17.17;;;;;;;;;;5014087;28;20041;-77
2022/11/26 02:19:13;;;;;;;55.57;18.37;;;;;;;;;;5017289;28;20034;-78
2022/11/26 02:21:41;;;;;;;55.93;18.33;;;;;;;;;;5017701;28;20043;-78
2022/11/26 02:24:15;;;;;;;44.47;16.87;;;;;;;;;;5027484;28;20033;-78
2022/11/26 02:26:47;;;;;;;51.83;15.40;;;;;;;;;;5027304;28;20045;-77
2022/11/26 02:29:13;;;;;;;40.93;13.80;;;;;;;;;;5026334;28;20030;-77
2022/11/26 02:31:48;;;;;;;43.03;13.00;;;;;;;;;;5028038;28;20040;-77
2022/11/26 02:34:17;;;;;;;46.07;15.00;;;;;;;;;;5012992;28;20866;-77
2022/11/26 02:37:01;;;;;;;46.27;16.90;;;;;;;;;;5027482;28;20029;-77
2022/11/26 02:39:30;;;;;;;54.87;15.87;;;;;;;;;;5033535;28;20030;-77
2022/11/26 02:41:58;;;;;;;48.20;19.03;;;;;;;;;;5018271;28;20053;-77
2022/11/26 02:44:28;;;;;;;55.10;17.80;;;;;;;;;;5020210;28;20096;-78
2022/11/26 02:46:57;;;;;;;41.00;16.03;;;;;;;;;;5022537;28;20030;-77
2022/11/26 02:49:24;;;;;;;44.37;15.97;;;;;;;;;;5018113;28;20026;-77
2022/11/26 02:51:53;;;;;;;44.00;16.40;;;;;;;;;;5031752;28;20054;-79
2022/11/26 02:54:22;;;;;;;42.50;16.70;;;;;;;;;;5018020;28;20034;-77
2022/11/26 02:56:51;;;;;;;54.50;18.67;;;;;;;;;;5015789;28;20030;-77
2022/11/26 02:59:17;;;;;;;45.40;17.13;;;;;;;;;;5028231;28;20207;-77
2022/11/26 03:01:47;;;;;;;52.10;17.73;;;;;;;;;;5019240;28;20354;-77
2022/11/26 03:04:23;;;;;;;45.30;17.40;;;;;;;;;;5017741;28;20034;-77
2022/11/26 03:06:53;;;;;;;52.80;18.00;;;;;;;;;;5032431;28;20029;-77
2022/11/26 03:09:21;;;;;;;55.23;18.77;;;;;;;;;;5033792;28;20034;-77
2022/11/26 03:11:47;;;;;;;49.53;17.37;;;;;;;;;;5016460;28;20022;-77
2022/11/26 03:14:13;;;;;;;62.97;19.43;;;;;;;;;;5030933;28;20229;-77
2022/11/26 03:16:39;;;;;;;57.27;18.83;;;;;;;;;;5029713;28;20076;-77
2022/11/26 03:19:05;;;;;;;46.80;17.70;;;;;;;;;;5020878;28;20053;-77
2022/11/26 03:21:32;;;;;;;62.67;19.73;;;;;;;;;;5029476;28;20037;-75
2022/11/26 03:23:58;;;;;;;58.37;20.63;;;;;;;;;;5019355;28;20420;-77
2022/11/26 03:26:24;;;;;;;62.27;21.03;;;;;;;;;;5019551;28;20144;-78
2022/11/26 03:28:50;;;;;;;57.73;20.30;;;;;;;;;;5017140;28;20064;-77
2022/11/26 03:31:16;;;;;;;52.27;17.97;;;;;;;;;;5018191;28;20188;-77
2022/11/26 03:33:42;;;;;;;44.43;16.80;;;;;;;;;;5033354;28;20067;-77
2022/11/26 03:36:11;;;;;;;51.53;17.33;;;;;;;;;;5017660;28;20034;-77
2022/11/26 03:38:37;;;;;;;49.73;17.97;;;;;;;;;;5048790;28;20080;-77
2022/11/26 03:41:04;;;;;;;47.17;17.70;;;;;;;;;;5015645;28;20438;-77
2022/11/26 03:43:30;;;;;;;56.00;18.07;;;;;;;;;;5048960;28;20109;-77
2022/11/26 03:45:56;;;;;;;55.17;16.40;;;;;;;;;;5019247;28;20838;-79
2022/11/26 03:48:22;;;;;;;50.07;18.07;;;;;;;;;;5046286;28;20482;-77
2022/11/26 03:50:48;;;;;;;49.97;15.53;;;;;;;;;;5016511;28;20358;-77
2022/11/26 03:53:14;;;;;;;55.40;17.77;;;;;;;;;;5018900;28;20045;-77
2022/11/26 03:55:41;;;;;;;42.13;15.97;;;;;;;;;;5014854;28;20029;-77
2022/11/26 03:58:07;;;;;;;46.93;16.10;;;;;;;;;;5031442;28;20066;-77
2022/11/26 04:00:33;;;;;;;50.93;16.07;;;;;;;;;;5015409;28;20033;-78
2022/11/26 04:02:59;;;;;;;45.00;16.80;;;;;;;;;;5015352;28;20466;-77
2022/11/26 04:05:25;;;;;;;41.53;16.43;;;;;;;;;;5028917;28;20030;-78
2022/11/26 04:07:51;;;;;;;49.80;17.20;;;;;;;;;;5042726;28;20030;-77
2022/11/26 04:10:17;;;;;;;47.77;18.23;;;;;;;;;;5015868;28;20030;-77
2022/11/26 04:12:43;;;;;;;54.07;18.03;;;;;;;;;;5016027;28;20342;-77
2022/11/26 04:15:09;;;;;;;59.53;16.77;;;;;;;;;;5015203;28;20113;-77
2022/11/26 04:17:35;;;;;;;36.67;15.97;;;;;;;;;;5015333;28;20049;-78
2022/11/26 04:20:01;;;;;;;61.60;18.93;;;;;;;;;;5015301;28;20064;-77
2022/11/26 04:22:27;;;;;;;42.77;17.37;;;;;;;;;;5028528;28;20494;-77
2022/11/26 04:24:53;;;;;;;54.23;17.43;;;;;;;;;;5028379;28;20026;-78
2022/11/26 04:27:19;;;;;;;44.80;17.00;;;;;;;;;;5014987;28;20030;-77
2022/11/26 04:29:45;;;;;;;50.13;18.00;;;;;;;;;;5015499;28;20572;-77
2022/11/26 04:32:14;;;;;;;50.47;19.37;;;;;;;;;;5046078;28;20061;-77
2022/11/26 04:34:40;;;;;;;47.67;17.73;;;;;;;;;;5013327;28;20021;-78
2022/11/26 04:37:08;;;;;;;50.73;16.93;;;;;;;;;;5047977;28;20029;-77
2022/11/26 04:39:35;;;;;;;44.20;16.73;;;;;;;;;;5032749;28;20026;-78
2022/11/26 04:42:01;;;;;;;39.77;15.87;;;;;;;;;;5025696;28;20041;-77
2022/11/26 04:44:27;;;;;;;52.83;17.20;;;;;;;;;;5015048;28;20025;-77
2022/11/26 04:46:53;;;;;;;56.70;17.90;;;;;;;;;;5031668;28;20297;-77
2022/11/26 04:49:19;;;;;;;45.57;16.80;;;;;;;;;;5016433;28;20053;-77
2022/11/26 04:51:45;;;;;;;41.53;17.03;;;;;;;;;;5022406;28;20586;-77
2022/11/26 04:54:11;;;;;;;40.23;15.27;;;;;;;;;;5007323;28;20277;-78
2022/11/26 04:56:37;;;;;;;50.17;16.43;;;;;;;;;;5015084;28;20264;-77
2022/11/26 04:59:06;;;;;;;53.87;18.40;;;;;;;;;;5014666;28;20438;-77
2022/11/26 05:01:35;;;;;;;39.93;15.40;;;;;;;;;;5014451;28;20312;-77
2022/11/26 05:04:01;;;;;;;52.13;15.90;;;;;;;;;;5015623;28;20057;-77
2022/11/26 05:06:27;;;;;;;42.67;16.23;;;;;;;;;;5014993;28;20477;-77
2022/11/26 05:08:53;;;;;;;46.47;15.83;;;;;;;;;;5015524;28;20419;-78
2022/11/26 05:11:19;;;;;;;43.23;14.03;;;;;;;;;;5012197;28;20030;-77
2022/11/26 05:13:45;;;;;;;32.90;13.87;;;;;;;;;;5014176;28;20069;-77
2022/11/26 05:16:12;;;;;;;34.77;14.93;;;;;;;;;;5014277;28;20033;-77
2022/11/26 05:18:38;;;;;;;47.50;15.60;;;;;;;;;;5014286;28;20265;-77
2022/11/26 05:21:07;;;;;;;41.93;16.23;;;;;;;;;;5022700;28;20284;-77
2022/11/26 05:23:33;;;;;;;42.47;15.50;;;;;;;;;;5047753;28;20376;-78
2022/11/26 05:25:59;;;;;;;37.50;14.20;;;;;;;;;;5014180;28;20053;-77
2022/11/26 05:28:25;;;;;;;38.17;15.90;;;;;;;;;;5014286;28;20022;-77
2022/11/26 05:30:57;;;;;;;37.03;14.13;;;;;;;;;;5030802;28;20708;-77
2022/11/26 05:33:23;;;;;;;37.22;15.40;;;;;;;;;;5014391;28;20598;-77
2022/11/26 05:35:49;;;;;;;34.93;14.37;;;;;;;;;;5015123;28;20079;-77
2022/11/26 05:38:15;;;;;;;41.63;13.90;;;;;;;;;;5027633;28;20269;-77
2022/11/26 05:40:41;;;;;;;58.60;14.73;;;;;;;;;;5030983;28;20033;-78
2022/11/26 05:43:07;;;;;;;43.07;14.83;;;;;;;;;;5013997;28;20277;-77
2022/11/26 05:45:33;;;;;;;35.30;14.43;;;;;;;;;;5014167;28;20268;-77
2022/11/26 05:47:59;;;;;;;33.07;13.37;;;;;;;;;;5014169;28;20030;-77
2022/11/26 05:50:25;;;;;;;42.70;14.27;;;;;;;;;;5014672;28;20265;-79
2022/11/26 05:52:51;;;;;;;42.07;14.57;;;;;;;;;;5047244;28;20304;-77
2022/11/26 05:55:18;;;;;;;40.13;13.43;;;;;;;;;;5046830;28;20307;-77
2022/11/26 05:57:44;;;;;;;36.37;12.80;;;;;;;;;;5012624;28;20933;-77
2022/11/26 06:00:11;;;;;;;42.90;14.13;;;;;;;;;;5026980;28;20337;-77
2022/11/26 06:02:39;;;;;;;33.70;13.67;;;;;;;;;;5010694;28;20257;-77
2022/11/26 06:05:05;;;;;;;30.53;13.17;;;;;;;;;;5014728;28;20265;-77
2022/11/26 06:07:32;;;;;;;34.90;13.47;;;;;;;;;;5030303;28;20820;-77
2022/11/26 06:09:58;;;;;;;43.83;15.37;;;;;;;;;;5016340;28;20589;-78
2022/11/26 06:12:24;;;;;;;31.70;13.50;;;;;;;;;;5018016;28;20746;-77
2022/11/26 06:14:50;;;;;;;37.13;14.57;;;;;;;;;;5018623;28;20732;-77
2022/11/26 06:17:16;;;;;;;38.80;13.40;;;;;;;;;;5017785;28;20265;-77
2022/11/26 06:19:42;;;;;;;36.33;13.63;;;;;;;;;;5017887;28;20157;-78
2022/11/26 06:22:08;;;;;;;34.70;12.90;;;;;;;;;;5017709;28;20293;-77
2022/11/26 06:24:34;;;;;;;34.73;12.67;;;;;;;;;;5017375;28;20328;-77
2022/11/26 06:27:00;;;;;;;40.87;12.90;;;;;;;;;;5017772;28;20292;-77
2022/11/26 06:29:26;;;;;;;38.50;13.30;;;;;;;;;;5017178;28;20269;-77
2022/11/26 06:31:52;;;;;;;32.87;12.07;;;;;;;;;;5034112;28;20276;-78
2022/11/26 06:34:18;;;;;;;28.27;12.13;;;;;;;;;;5017745;28;20045;-77
2022/11/26 06:36:46;;;;;;;33.97;13.33;;;;;;;;;;5034043;28;20034;-77
2022/11/26 06:39:12;;;;;;;33.90;13.80;;;;;;;;;;5017164;28;20273;-77
2022/11/26 06:41:38;;;;;;;30.70;12.20;;;;;;;;;;5017319;28;20275;-78
2022/11/26 06:44:04;;;;;;;35.30;13.53;;;;;;;;;;5025890;28;20030;-77
2022/11/26 06:46:33;;;;;;;42.23;13.07;;;;;;;;;;5033727;28;20330;-78
2022/11/26 06:49:05;;;;;;;37.87;14.73;;;;;;;;;;5018244;28;20261;-77
2022/11/26 06:51:31;;;;;;;37.72;13.68;;;;;;;;;;5007083;28;20381;-77
2022/11/26 06:53:57;;;;;;;36.57;12.83;;;;;;;;;;5017689;28;20045;-78
2022/11/26 06:56:24;;;;;;;37.97;13.03;;;;;;;;;;5030831;28;20324;-78
2022/11/26 06:58:53;;;;;;;37.67;12.60;;;;;;;;;;5034578;28;20273;-78
2022/11/26 07:01:22;;;;;;;43.20;16.63;;;;;;;;;;5016973;28;20733;-77
2022/11/26 07:03:48;;;;;;;35.07;11.63;;;;;;;;;;5020073;28;20289;-78
2022/11/26 07:06:27;;;;;;;37.40;14.70;;;;;;;;;;5018638;28;20269;-79
2022/11/26 07:08:54;;;;;;;33.67;13.40;;;;;;;;;;5024053;28;20034;-77
2022/11/26 07:11:20;;;;;;;36.13;12.27;;;;;;;;;;5039578;28;20269;-77
2022/11/26 07:13:47;;;;;;;36.77;13.10;;;;;;;;;;5017163;28;20268;-77
2022/11/26 07:16:13;;;;;;;42.60;15.40;;;;;;;;;;5017469;28;20304;-77
2022/11/26 07:18:39;;;;;;;41.03;13.80;;;;;;;;;;5017666;28;20279;-77
2022/11/26 07:21:12;;;;;;;35.97;13.10;;;;;;;;;;5026775;28;20269;-77
2022/11/26 07:23:39;;;;;;;34.73;13.07;;;;;;;;;;5015723;28;20292;-78
2022/11/26 07:26:05;;;;;;;36.83;15.00;;;;;;;;;;5016405;28;20281;-78
2022/11/26 07:28:32;;;;;;;41.13;14.43;;;;;;;;;;5049663;28;20331;-78
2022/11/26 07:31:01;;;;;;;40.03;15.20;;;;;;;;;;5016564;28;20336;-78
2022/11/26 07:33:28;;;;;;;35.87;14.17;;;;;;;;;;5016590;28;20344;-77
2022/11/26 07:35:54;;;;;;;51.07;14.67;;;;;;;;;;5014965;28;20868;-77
2022/11/26 07:38:20;;;;;;;42.30;15.63;;;;;;;;;;5049387;28;20300;-77
2022/11/26 07:40:46;;;;;;;37.80;15.90;;;;;;;;;;5028417;28;20276;-77
2022/11/26 07:43:12;;;;;;;36.13;14.30;;;;;;;;;;5018821;28;20877;-77
2022/11/26 07:45:38;;;;;;;44.07;13.83;;;;;;;;;;5032094;28;20045;-77
2022/11/26 07:48:04;;;;;;;46.07;15.47;;;;;;;;;;5018226;28;20026;-77
2022/11/26 07:50:31;;;;;;;40.80;16.07;;;;;;;;;;5018439;28;20022;-76
2022/11/26 07:52:59;;;;;;;41.90;16.63;;;;;;;;;;5030688;28;20037;-77
2022/11/26 07:55:25;;;;;;;40.77;14.97;;;;;;;;;;5030339;28;20371;-77
2022/11/26 07:57:51;;;;;;;54.43;16.60;;;;;;;;;;5013998;28;20040;-77
2022/11/26 08:00:20;;;;;;;42.63;16.13;;;;;;;;;;5018187;28;20025;-79
2022/11/26 08:02:46;;;;;;;40.23;15.20;;;;;;;;;;5019350;28;20037;-78
2022/11/26 08:05:12;;;;;;;42.10;17.87;;;;;;;;;;5018586;28;20034;-78
2022/11/26 08:07:38;;;;;;;46.43;19.30;;;;;;;;;;5018502;28;20026;-77
2022/11/26 08:10:07;;;;;;;50.80;18.13;;;;;;;;;;5031012;28;20033;-78
2022/11/26 08:12:33;;;;;;;49.43;18.13;;;;;;;;;;5035275;28;20026;-78
2022/11/26 08:15:01;;;;;;;44.80;17.90;;;;;;;;;;5016838;28;20113;-77
2022/11/26 08:17:27;;;;;;;47.83;16.10;;;;;;;;;;5035479;28;20021;-79
2022/11/26 08:19:53;;;;;;;40.30;16.23;;;;;;;;;;5017076;28;20370;-77
2022/11/26 08:22:19;;;;;;;46.07;16.67;;;;;;;;;;5016773;28;20038;-78
2022/11/26 08:24:45;;;;;;;41.70;15.47;;;;;;;;;;5015400;28;20041;-78
2022/11/26 08:27:11;;;;;;;38.60;16.03;;;;;;;;;;5017050;28;20033;-77
2022/11/26 08:29:37;;;;;;;40.27;17.00;;;;;;;;;;5015959;28;20037;-79
2022/11/26 08:32:03;;;;;;;49.10;18.90;;;;;;;;;;5018610;28;21757;-76
2022/11/26 08:34:29;;;;;;;53.27;18.33;;;;;;;;;;5049326;28;20029;-77
2022/11/26 08:36:55;;;;;;;45.77;17.93;;;;;;;;;;5019980;28;20034;-77
2022/11/26 08:39:21;;;;;;;46.83;18.07;;;;;;;;;;5016557;28;20044;-77
2022/11/26 08:41:47;;;;;;;45.80;17.87;;;;;;;;;;5013573;28;20036;-78
2022/11/26 08:44:14;;;;;;;39.53;16.63;;;;;;;;;;5016527;28;20033;-77
2022/11/26 08:46:40;;;;;;;44.97;18.63;;;;;;;;;;5020485;28;20153;-77
2022/11/26 08:49:09;;;;;;;43.27;17.87;;;;;;;;;;5020367;28;20451;-77
2022/11/26 08:51:35;;;;;;;42.40;18.07;;;;;;;;;;5017448;28;20036;-77
2022/11/26 08:54:01;;;;;;;52.60;17.50;;;;;;;;;;5016349;28;20574;-78
2022/11/26 08:56:27;;;;;;;42.67;18.70;;;;;;;;;;5016606;28;20040;-78
2022/11/26 08:58:55;;;;;;;37.70;18.40;;;;;;;;;;5014479;28;20030;-78
2022/11/26 09:01:26;;;;;;;43.60;17.37;;;;;;;;;;5020728;28;20038;-78
2022/11/26 09:03:53;;;;;;;45.00;18.80;;;;;;;;;;5048335;28;20041;-77
2022/11/26 09:06:20;;;;;;;49.50;19.50;;;;;;;;;;5029508;28;20030;-78
2022/11/26 09:11:33;;;;;;;47.07;17.27;;;;;;;;;;5017409;28;20040;-77
2022/11/26 09:13:59;;;;;;;37.90;16.43;;;;;;;;;;5017800;28;20477;-78
2022/11/26 09:16:25;;;;;;;30.63;14.33;;;;;;;;;;5017847;28;20033;-78
2022/11/26 09:18:54;;;;;;;32.93;15.60;;;;;;;;;;5030354;28;20041;-76
2022/11/26 09:21:20;;;;;;;27.67;13.47;;;;;;;;;;5034520;28;20026;-78
2022/11/26 09:23:46;;;;;;;34.83;12.90;;;;;;;;;;5015828;28;20072;-79
2022/11/26 09:26:12;;;;;;;40.97;14.70;;;;;;;;;;5032302;28;20044;-79
2022/11/26 09:28:38;;;;;;;27.33;11.87;;;;;;;;;;5032168;28;20839;-79
2022/11/26 09:31:05;;;;;;;24.13;11.30;;;;;;;;;;5015603;28;20861;-79
2022/11/26 09:33:31;;;;;;;28.70;12.20;;;;;;;;;;5031550;28;20030;-79
2022/11/26 09:36:04;;;;;;;32.33;14.27;;;;;;;;;;5019994;28;20041;-80
2022/11/26 09:38:30;;;;;;;33.97;13.17;;;;;;;;;;5032038;28;20029;-80
2022/11/26 09:41:15;;;;;;;26.63;11.23;;;;;;;;;;5015017;28;20026;-79
2022/11/26 09:43:50;;;;;;;31.73;12.77;;;;;;;;;;5049731;28;20049;-80
2022/11/26 09:46:19;;;;;;;31.10;12.10;;;;;;;;;;5048829;28;20041;-78
2022/11/26 09:48:45;;;;;;;36.77;14.20;;;;;;;;;;5014533;28;20030;-79
2022/11/26 09:51:13;;;;;;;30.40;12.60;;;;;;;;;;5018468;28;20022;-77
2022/11/26 09:53:45;;;;;;;29.63;12.13;;;;;;;;;;5014799;28;20116;-79
2022/11/26 09:56:19;;;;;;;32.97;11.50;;;;;;;;;;5014611;28;20522;-78
2022/11/26 09:58:51;;;;;;;32.10;12.23;;;;;;;;;;5048087;28;20038;-79
2022/11/26 10:01:19;;;;;;;25.90;12.60;;;;;;;;;;5031176;28;20626;-78
2022/11/26 10:03:47;;;;;;;24.40;13.17;;;;;;;;;;5014917;28;20053;-78
2022/11/26 10:06:32;;;;;;;25.53;12.73;;;;;;;;;;5030922;28;20018;-80
2022/11/26 10:09:07;;;;;;;34.17;11.63;;;;;;;;;;5016029;28;20018;-79
2022/11/26 10:11:39;;;;;;;28.07;11.27;;;;;;;;;;5015226;28;20032;-78
2022/11/26 10:14:05;;;;;;;22.58;10.90;;;;;;;;;;5014873;28;20499;-78
2022/11/26 10:16:41;;;;;;;23.33;10.17;;;;;;;;;;5015448;28;20045;-80
2022/11/26 10:19:13;;;;;;;22.87;10.80;;;;;;;;;;5015473;28;20116;-80
2022/11/26 10:21:39;;;;;;;24.90;10.60;;;;;;;;;;5022207;28;20485;-79
2022/11/26 10:24:19;;;;;;;30.23;12.23;;;;;;;;;;5015186;28;20034;-79
2022/11/26 10:26:49;;;;;;;22.53;9.00;;;;;;;;;;5032392;28;20461;-80
2022/11/26 10:29:26;;;;;;;23.13;9.47;;;;;;;;;;5016042;28;20396;-80
2022/11/26 10:32:00;;;;;;;23.63;8.43;;;;;;;;;;5022152;28;20378;-79
2022/11/26 10:34:39;;;;;;;19.40;8.20;;;;;;;;;;5015595;28;20025;-80
2022/11/26 10:37:05;;;;;;;21.33;8.70;;;;;;;;;;5016600;28;20034;-79
2022/11/26 10:39:31;;;;;;;25.87;7.93;;;;;;;;;;5018141;28;20120;-80
2022/11/26 10:42:02;;;;;;;19.17;7.33;;;;;;;;;;5016002;28;20030;-81
2022/11/26 10:44:29;;;;;;;27.43;8.87;;;;;;;;;;5034528;28;20037;-80
2022/11/26 10:46:58;;;;;;;18.03;8.67;;;;;;;;;;5017020;28;20034;-79
2022/11/26 10:49:26;;;;;;;21.23;7.47;;;;;;;;;;5014707;28;20025;-79
2022/11/26 10:52:00;;;;;;;20.20;7.73;;;;;;;;;;5026246;28;20034;-79
2022/11/26 10:54:33;;;;;;;21.10;8.17;;;;;;;;;;5015975;28;20038;-79
2022/11/26 10:57:12;;;;;;;18.07;6.97;;;;;;;;;;5015135;28;20053;-80
2022/11/26 10:59:39;;;;;;;17.63;6.13;;;;;;;;;;5042176;28;20037;-79
2022/11/26 11:02:28;;;;;;;20.57;8.63;;;;;;;;;;5019012;28;20036;-80
2022/11/26 11:04:56;;;;;;;20.93;7.43;;;;;;;;;;5026719;28;20048;-79
2022/11/26 11:07:38;;;;;;;22.90;7.47;;;;;;;;;;5018384;28;20021;-79
2022/11/26 11:10:10;;;;;;;23.80;6.35;;;;;;;;;;5029633;28;20030;-79
2022/11/26 11:12:36;;;;;;;18.45;6.50;;;;;;;;;;5024872;28;20081;-80
2022/11/26 11:15:29;;;;;;;13.97;6.20;;;;;;;;;;5034310;28;20025;-81
2022/11/26 11:17:55;;;;;;;16.02;6.00;;;;;;;;;;5013780;28;20133;-79
2022/11/26 11:20:27;;;;;;;20.90;8.20;;;;;;;;;;5033595;28;20061;-79
2022/11/26 11:22:57;;;;;;;18.98;7.32;;;;;;;;;;5017385;28;20431;-79
2022/11/26 11:25:31;;;;;;;22.83;8.03;;;;;;;;;;5014198;28;20030;-81
2022/11/26 11:28:07;;;;;;;13.83;5.87;;;;;;;;;;5012315;28;20030;-79
2022/11/26 11:30:37;;;;;;;17.80;6.50;;;;;;;;;;5014332;28;20033;-79
2022/11/26 11:33:10;;;;;;;19.10;5.00;;;;;;;;;;5017628;28;20026;-79
2022/11/26 11:35:36;;;;;;;17.30;5.27;;;;;;;;;;5030703;28;20084;-79
2022/11/26 11:38:05;;;;;;;15.20;4.50;;;;;;;;;;5016871;28;20045;-79
2022/11/26 11:40:40;;;;;;;13.20;4.43;;;;;;;;;;5016851;28;20096;-79
2022/11/26 11:43:06;;;;;;;13.97;4.73;;;;;;;;;;5016607;28;20029;-79
2022/11/26 11:45:39;;;;;;;16.00;5.00;;;;;;;;;;5017213;28;20092;-79
2022/11/26 11:48:08;;;;;;;14.20;4.32;;;;;;;;;;5017179;28;20018;-79
2022/11/26 11:50:37;;;;;;;13.60;4.40;;;;;;;;;;5034217;28;20022;-80
2022/11/26 11:53:18;;;;;;;14.47;5.10;;;;;;;;;;5033652;28;20033;-79
2022/11/26 11:55:47;;;;;;;15.93;6.10;;;;;;;;;;5013361;28;20029;-79
2022/11/26 11:58:19;;;;;;;14.83;3.57;;;;;;;;;;5016629;28;20026;-80
2022/11/26 12:01:00;;;;;;;15.25;4.30;;;;;;;;;;5017112;28;20459;-79
2022/11/26 12:03:29;;;;;;;14.80;4.47;;;;;;;;;;5021583;28;20022;-79
2022/11/26 12:06:12;;;;;;;12.83;4.23;;;;;;;;;;5012271;28;20113;-79
2022/11/26 12:08:48;;;;;;;13.43;5.00;;;;;;;;;;5009957;28;20026;-80
2022/11/26 12:11:32;;;;;;;15.73;4.03;;;;;;;;;;5024281;28;20088;-79
2022/11/26 12:14:02;;;;;;;20.93;4.93;;;;;;;;;;5021039;28;20037;-80
2022/11/26 12:16:29;;;;;;;12.37;3.67;;;;;;;;;;5032819;28;20044;-79
2022/11/26 12:18:59;;;;;;;20.63;6.20;;;;;;;;;;5016876;28;20037;-79
2022/11/26 12:21:30;;;;;;;14.37;4.53;;;;;;;;;;5017057;28;20036;-79
2022/11/26 12:24:02;;;;;;;12.93;3.53;;;;;;;;;;5015986;28;20025;-78
2022/11/26 12:26:50;;;;;;;13.88;3.90;;;;;;;;;;5015745;28;20173;-79
2022/11/26 12:29:22;;;;;;;9.23;4.17;;;;;;;;;;5016726;28;20041;-79
2022/11/26 12:31:53;;;;;;;12.52;3.97;;;;;;;;;;5048818;28;20018;-79
2022/11/26 12:34:28;;;;;;;14.50;5.17;;;;;;;;;;5024575;28;20030;-78
2022/11/26 12:36:54;;;;;;;12.73;4.90;;;;;;;;;;5016013;28;20022;-78
2022/11/26 12:39:31;;;;;;;13.87;5.87;;;;;;;;;;5011110;28;20040;-79
2022/11/26 12:42:01;;;;;;;12.20;4.63;;;;;;;;;;5029012;28;20031;-80
2022/11/26 12:44:48;;;;;;;17.97;6.30;;;;;;;;;;5027939;28;20033;-79
2022/11/26 12:47:26;;;;;;;16.63;5.87;;;;;;;;;;5015314;28;20029;-78
2022/11/26 12:50:01;;;;;;;12.40;5.13;;;;;;;;;;5010522;28;20029;-78
2022/11/26 12:52:30;;;;;;;9.47;4.37;;;;;;;;;;5045718;28;20373;-79
2022/11/26 12:54:59;;;;;;;9.67;5.00;;;;;;;;;;5016030;28;20026;-78
2022/11/26 12:57:31;;;;;;;13.87;4.53;;;;;;;;;;5015282;28;20056;-79
2022/11/26 13:00:05;;;;;;;14.00;4.95;;;;;;;;;;5016442;28;20034;-79
2022/11/26 13:02:41;;;;;;;10.60;3.90;;;;;;;;;;5016209;28;20041;-80
2022/11/26 13:05:10;;;;;;;11.90;4.43;;;;;;;;;;5024909;28;20356;-79
2022/11/26 13:07:59;;;;;;;13.93;5.13;;;;;;;;;;5015106;28;20037;-78
2022/11/26 13:10:37;;;;;;;17.53;4.77;;;;;;;;;;5028024;28;20053;-78
2022/11/26 13:13:06;;;;;;;12.33;5.07;;;;;;;;;;5043894;28;20152;-78
2022/11/26 13:15:32;;;;;;;17.20;4.60;;;;;;;;;;5015300;28;20060;-79
2022/11/26 13:17:59;;;;;;;10.70;4.20;;;;;;;;;;5018198;28;20026;-79
2022/11/26 13:20:32;;;;;;;10.67;3.87;;;;;;;;;;5023051;28;20018;-79
2022/11/26 13:23:03;;;;;;;11.97;4.40;;;;;;;;;;5015046;28;20030;-79
2022/11/26 13:25:30;;;;;;;11.30;3.33;;;;;;;;;;5014582;28;20038;-78
2022/11/26 13:28:03;;;;;;;12.27;4.07;;;;;;;;;;5014826;28;20029;-78
2022/11/26 13:30:38;;;;;;;12.23;3.90;;;;;;;;;;5024747;28;20022;-78
2022/11/26 13:33:09;;;;;;;12.10;3.30;;;;;;;;;;5025982;28;20026;-78
2022/11/26 13:35:59;;;;;;;10.80;3.57;;;;;;;;;;5047123;28;20121;-78
2022/11/26 13:38:33;;;;;;;11.27;4.43;;;;;;;;;;5028173;28;20172;-78
2022/11/26 13:41:05;;;;;;;12.60;4.53;;;;;;;;;;5028703;28;20033;-77
2022/11/26 13:43:48;;;;;;;14.35;3.97;;;;;;;;;;5026301;28;20072;-78
2022/11/26 13:46:44;;;;;;;11.60;3.83;;;;;;;;;;5027618;28;20057;-78
2022/11/26 13:49:28;;;;;;;8.57;4.27;;;;;;;;;;5024080;28;20046;-78
2022/11/26 13:51:54;;;;;;;15.83;4.20;;;;;;;;;;5028950;28;20179;-78
2022/11/26 13:54:23;;;;;;;11.87;4.03;;;;;;;;;;5015986;28;20461;-77
2022/11/26 13:56:55;;;;;;;14.13;4.83;;;;;;;;;;5025172;28;20171;-78
2022/11/26 13:59:23;;;;;;;15.77;6.60;;;;;;;;;;5016821;28;20038;-78
2022/11/26 14:01:49;;;;;;;12.90;4.23;;;;;;;;;;5013729;28;20048;-78
2022/11/26 14:04:35;;;;;;;11.97;3.80;;;;;;;;;;5015944;28;20450;-78
2022/11/26 14:07:10;;;;;;;13.07;3.80;;;;;;;;;;5014101;28;20037;-78
2022/11/26 14:09:48;;;;;;;8.40;3.27;;;;;;;;;;5017974;28;20026;-78
2022/11/26 14:12:15;;;;;;;13.80;4.60;;;;;;;;;;5033919;28;20033;-78
2022/11/26 14:14:42;;;;;;;15.57;3.87;;;;;;;;;;5026524;28;20493;-78
2022/11/26 14:17:08;;;;;;;10.73;4.03;;;;;;;;;;5012961;28;20037;-78
2022/11/26 14:19:41;;;;;;;11.93;4.40;;;;;;;;;;5013371;28;20033;-78
2022/11/26 14:22:07;;;;;;;;;;;;;;;;;;5029576;28;20472;-78
2022/11/26 14:24:48;;;;;;;16.93;5.60;;;;;;;;;;5028605;28;19974;-78
2022/11/26 14:27:19;;;;;;;10.63;4.80;;;;;;;;;;5015710;28;20057;-77
2022/11/26 14:29:46;;;;;;;16.60;7.67;;;;;;;;;;5026536;28;20038;-77
2022/11/26 14:32:17;;;;;;;13.30;4.40;;;;;;;;;;5027904;28;20050;-78
2022/11/26 14:34:47;;;;;;;10.73;4.23;;;;;;;;;;5019397;28;20038;-77
2022/11/26 14:37:17;;;;;;;18.30;4.80;;;;;;;;;;5027574;28;20076;-78